In Rescue
 
Open Full Screen Window  High Contrast Mode
Wind Gusting 13 knots
06
September 23, 2021 2:50 PM EDT
Weather Information
Wind Direction
  VRB °
Wind Speed
  06 kt (7 mph)
Wind Gust
  13 kt (15 mph)
Altimeter
30.01 in
Visibility
10 SM
Temperature
18° C
64° F
Dewpoint
08° C
46° F
Humidity
52%
1hr Rain Fall
00.02 in.
24hr Rain Fall
00.78 in.
Sky Condition
Scattered @ 6,000 ft
VFR

METAR KSYM 231850Z AUTO VRB06G13KT 10SM SCT060 18/08 A3001 RMK AO2 P0002

FAA Disclaimer: The data displayed is for advisory purposes only and is not to be used for flight planning or operations.